Time;durP1;ratioP1;P1;durP2;ratioP2;P2;SDS_P1;SDS_P2;PMS_P1;PMS_P2;Temp;Humidity;BMP_temperature;BMP_pressure;BME280_temperature;BME280_humidity;BME280_pressure;Samples;Min_cycle;Max_cycle;Signal;HPM_P1;HPM_P2
2023/09/10 00:01:10;;;;;;;24.38;20.65;;;14.50;99.90;;;;;;5138928;27;20093;-26
2023/09/10 00:03:35;;;;;;;30.67;26.83;;;14.50;99.90;;;;;;5156254;27;20050;-26
2023/09/10 00:06:06;;;;;;;37.55;31.35;;;14.40;99.90;;;;;;5156772;27;20129;-26
2023/09/10 00:08:35;;;;;;;57.15;43.50;;;14.50;99.90;;;;;;5156804;27;20038;-26
2023/09/10 00:11:02;;;;;;;53.83;39.00;;;14.60;99.90;;;;;;5156115;27;20043;-26
2023/09/10 00:13:28;;;;;;;36.22;31.90;;;14.70;99.90;;;;;;5138381;27;20046;-26
2023/09/10 00:15:54;;;;;;;37.92;33.25;;;14.70;99.90;;;;;;5155951;27;20087;-26
2023/09/10 00:18:20;;;;;;;34.33;30.10;;;14.70;99.90;;;;;;5156547;27;20043;-26
2023/09/10 00:20:46;;;;;;;38.72;33.33;;;14.70;99.90;;;;;;5137994;27;20047;-25
2023/09/10 00:23:13;;;;;;;41.90;37.35;;;14.80;99.90;;;;;;5157071;27;20043;-25
2023/09/10 00:25:39;;;;;;;56.58;44.63;;;14.70;99.90;;;;;;5155299;27;20050;-26
2023/09/10 00:28:05;;;;;;;51.22;40.83;;;14.70;99.90;;;;;;5137773;27;20077;-26
2023/09/10 00:30:31;;;;;;;68.53;49.65;;;14.80;99.90;;;;;;5137819;27;20084;-26
2023/09/10 00:32:57;;;;;;;52.42;41.55;;;14.70;99.90;;;;;;5155343;27;20043;-25
2023/09/10 00:35:23;;;;;;;68.15;49.50;;;14.70;99.90;;;;;;5156801;27;20507;-26
2023/09/10 00:37:48;;;;;;;75.35;52.95;;;14.70;99.90;;;;;;5156245;27;20384;-26
2023/09/10 00:40:14;;;;;;;99.35;65.88;;;14.70;99.90;;;;;;5156177;27;20050;-26
2023/09/10 00:42:40;;;;;;;145.23;86.82;;;14.70;99.90;;;;;;5156108;27;20086;-26
2023/09/10 00:45:08;;;;;;;125.68;80.75;;;14.80;99.90;;;;;;5138685;27;20423;-25
2023/09/10 00:47:35;;;;;;;113.00;75.82;;;14.90;99.90;;;;;;5154974;27;20086;-25
2023/09/10 00:50:01;;;;;;;102.60;67.43;;;14.90;99.90;;;;;;5156839;27;20074;-26
2023/09/10 00:52:28;;;;;;;74.43;55.70;;;14.90;99.90;;;;;;5155664;27;20054;-26
2023/09/10 00:54:54;;;;;;;83.18;56.60;;;14.90;99.90;;;;;;5155579;27;20484;-26
2023/09/10 00:57:21;;;;;;;81.72;53.40;;;14.80;99.90;;;;;;5156120;27;20098;-25
2023/09/10 00:59:47;;;;;;;59.63;44.78;;;14.80;99.90;;;;;;5156611;27;20047;-25
2023/09/10 01:02:14;;;;;;;56.83;45.13;;;14.70;99.90;;;;;;5155641;27;20468;-25
2023/09/10 01:04:40;;;;;;;61.00;45.63;;;14.60;99.90;;;;;;5154598;27;20495;-26
2023/09/10 01:07:07;;;;;;;61.05;46.03;;;14.60;99.90;;;;;;5155688;27;20047;-26
2023/09/10 01:09:33;;;;;;;53.22;43.03;;;14.50;99.90;;;;;;5155231;27;20150;-26
2023/09/10 01:12:20;;;;;;;98.93;68.22;;;14.50;99.90;;;;;;5155601;27;20084;-26
2023/09/10 01:14:58;;;;;;;92.25;60.95;;;14.50;99.90;;;;;;5155889;27;20039;-26
2023/09/10 01:17:45;;;;;;;56.38;43.13;;;14.60;99.90;;;;;;5156432;27;20043;-26
2023/09/10 01:20:29;;;;;;;26.00;23.60;;;14.60;99.90;;;;;;5137627;27;20385;-26
2023/09/10 01:23:24;;;;;;;37.20;32.45;;;14.50;99.90;;;;;;5155798;27;20432;-25
2023/09/10 01:25:50;;;;;;;37.70;31.55;;;14.30;99.90;;;;;;5155431;27;20058;-25
2023/09/10 01:28:16;;;;;;;38.85;33.17;;;14.30;99.90;;;;;;5155395;27;20043;-25
2023/09/10 01:30:42;;;;;;;45.55;36.80;;;14.30;99.90;;;;;;5155127;27;20094;-25
2023/09/10 01:33:16;;;;;;;51.22;43.33;;;14.30;99.90;;;;;;5136782;27;20051;-25
2023/09/10 01:36:24;;;;;;;49.42;40.67;;;14.40;99.90;;;;;;5155966;27;20058;-25
2023/09/10 01:39:07;;;;;;;48.95;40.42;;;14.30;99.90;;;;;;5156197;27;20415;-26
2023/09/10 01:41:35;;;;;;;203.80;71.90;;;14.30;99.90;;;;;;5154931;27;20093;-26
2023/09/10 01:44:02;;;;;;;294.42;85.78;;;14.30;99.90;;;;;;5154264;27;20066;-26
2023/09/10 01:46:28;;;;;;;102.50;59.00;;;14.30;99.90;;;;;;5155152;27;20038;-26
2023/09/10 01:48:54;;;;;;;386.83;91.10;;;14.30;99.90;;;;;;5155436;27;20053;-25
2023/09/10 01:51:20;;;;;;;204.65;72.25;;;14.20;99.90;;;;;;5155008;27;20389;-24
2023/09/10 01:53:48;;;;;;;243.05;73.75;;;14.30;99.90;;;;;;5154190;27;20054;-25
2023/09/10 01:56:14;;;;;;;150.48;69.57;;;14.30;99.90;;;;;;5155158;27;20089;-25
2023/09/10 01:58:40;;;;;;;134.95;74.78;;;14.30;99.90;;;;;;5155923;27;20038;-26
2023/09/10 02:01:06;;;;;;;94.63;61.75;;;14.30;99.90;;;;;;5137191;27;20050;-25
2023/09/10 02:03:32;;;;;;;73.07;53.45;;;14.30;99.90;;;;;;5155061;27;20050;-24
2023/09/10 02:06:00;;;;;;;70.95;53.95;;;14.20;99.90;;;;;;5159487;27;20491;-26
2023/09/10 02:08:26;;;;;;;62.78;50.15;;;14.20;99.90;;;;;;5159057;27;20609;-26
2023/09/10 02:10:51;;;;;;;70.40;54.00;;;14.20;99.90;;;;;;5159648;27;20133;-26
2023/09/10 02:13:17;;;;;;;57.08;48.28;;;14.20;99.90;;;;;;5159017;27;20090;-26
2023/09/10 02:15:43;;;;;;;58.92;50.67;;;14.20;99.90;;;;;;5159050;27;20046;-25
2023/09/10 02:18:08;;;;;;;65.30;55.13;;;14.20;99.90;;;;;;5157788;27;20407;-24
2023/09/10 02:20:36;;;;;;;70.43;56.03;;;14.30;99.90;;;;;;5158276;27;20034;-24
2023/09/10 02:23:02;;;;;;;67.82;58.08;;;14.20;99.90;;;;;;5158845;27;20089;-26
2023/09/10 02:25:28;;;;;;;61.78;54.53;;;14.20;99.90;;;;;;5157586;27;20389;-24
2023/09/10 02:27:54;;;;;;;69.60;57.38;;;14.20;99.90;;;;;;5141297;27;20042;-25
2023/09/10 02:30:20;;;;;;;62.63;52.00;;;14.20;99.90;;;;;;5158761;27;20046;-26
2023/09/10 02:32:45;;;;;;;74.95;61.70;;;14.30;99.90;;;;;;5157479;27;20448;-25
2023/09/10 02:35:11;;;;;;;58.65;52.50;;;14.20;99.90;;;;;;5158622;27;20133;-25
2023/09/10 02:37:37;;;;;;;62.50;56.08;;;14.20;99.90;;;;;;5140207;27;20392;-25
2023/09/10 02:40:06;;;;;;;56.05;50.35;;;14.20;99.90;;;;;;5158465;27;20484;-25
2023/09/10 02:42:32;;;;;;;62.40;55.53;;;14.20;99.90;;;;;;5157485;27;20086;-25
2023/09/10 02:44:58;;;;;;;74.13;62.42;;;14.20;99.90;;;;;;5159544;27;20085;-25
2023/09/10 02:47:24;;;;;;;62.42;55.75;;;14.10;99.90;;;;;;5158511;27;20105;-25
2023/09/10 02:49:50;;;;;;;54.65;48.95;;;14.10;99.90;;;;;;5157618;27;20488;-24
2023/09/10 02:52:16;;;;;;;52.67;47.60;;;14.00;99.90;;;;;;5158869;27;20055;-24
2023/09/10 02:54:41;;;;;;;50.88;45.80;;;14.00;99.90;;;;;;5158288;27;20047;-25
2023/09/10 02:57:07;;;;;;;48.58;43.65;;;13.90;99.90;;;;;;5158129;27;20129;-26
2023/09/10 02:59:33;;;;;;;42.17;38.28;;;13.80;99.90;;;;;;5157454;27;20052;-25
2023/09/10 03:01:58;;;;;;;39.72;36.22;;;13.80;99.90;;;;;;5158063;27;20043;-25
2023/09/10 03:04:24;;;;;;;35.00;31.88;;;13.60;99.90;;;;;;5156618;27;20175;-24
2023/09/10 03:06:51;;;;;;;41.58;37.85;;;13.60;99.90;;;;;;5156677;27;20046;-24
2023/09/10 03:09:17;;;;;;;47.95;43.28;;;13.60;99.90;;;;;;5157889;27;20104;-26
2023/09/10 03:11:44;;;;;;;53.75;48.55;;;13.60;99.90;;;;;;5157928;27;20057;-25
2023/09/10 03:14:10;;;;;;;57.28;51.75;;;13.70;99.90;;;;;;5156912;27;20055;-26
2023/09/10 03:16:40;;;;;;;55.50;50.03;;;13.80;99.90;;;;;;5157739;27;20050;-25
2023/09/10 03:19:06;;;;;;;59.40;53.38;;;13.90;99.90;;;;;;5156855;27;20568;-25
2023/09/10 03:21:32;;;;;;;56.03;50.15;;;13.90;99.90;;;;;;5157692;27;20078;-25
2023/09/10 03:23:58;;;;;;;56.28;50.95;;;13.90;99.90;;;;;;5156396;27;20082;-25
2023/09/10 03:26:23;;;;;;;55.80;49.92;;;13.90;99.90;;;;;;5157885;27;20039;-25
2023/09/10 03:28:49;;;;;;;51.85;46.75;;;13.90;99.90;;;;;;5157760;27;20039;-26
2023/09/10 03:31:15;;;;;;;47.30;42.75;;;13.90;99.90;;;;;;5157480;27;20476;-26
2023/09/10 03:33:44;;;;;;;49.30;44.60;;;13.90;99.90;;;;;;5157433;27;20038;-25
2023/09/10 03:36:09;;;;;;;58.53;52.13;;;14.00;99.90;;;;;;5156875;27;20055;-25
2023/09/10 03:38:36;;;;;;;58.40;52.22;;;14.00;99.90;;;;;;5157411;27;20497;-25
2023/09/10 03:41:01;;;;;;;51.20;46.13;;;13.90;99.90;;;;;;5156362;27;20495;-26
2023/09/10 03:43:27;;;;;;;56.97;50.45;;;13.90;99.90;;;;;;5156311;27;20134;-24
2023/09/10 03:45:53;;;;;;;57.85;51.53;;;13.90;99.90;;;;;;5157199;27;20045;-26
2023/09/10 03:48:19;;;;;;;50.40;45.20;;;13.90;99.90;;;;;;5157081;27;20046;-25
2023/09/10 03:50:44;;;;;;;55.60;49.20;;;14.00;99.90;;;;;;5157643;27;20039;-25
2023/09/10 03:53:10;;;;;;;59.63;53.15;;;14.00;99.90;;;;;;5155411;27;20180;-25
2023/09/10 03:55:36;;;;;;;59.10;52.63;;;14.00;99.90;;;;;;5157009;27;20050;-25
2023/09/10 03:58:02;;;;;;;58.30;50.38;;;13.90;99.90;;;;;;5156928;27;20129;-25
2023/09/10 04:00:28;;;;;;;62.97;52.70;;;14.00;99.90;;;;;;5157515;27;20081;-25
2023/09/10 04:02:54;;;;;;;55.95;48.75;;;14.00;99.90;;;;;;5156924;27;20047;-25
2023/09/10 04:05:20;;;;;;;59.75;53.25;;;14.00;99.90;;;;;;5155733;27;20059;-25
2023/09/10 04:07:45;;;;;;;55.28;49.05;;;14.10;99.90;;;;;;5157320;27;20039;-25
2023/09/10 04:10:11;;;;;;;59.38;52.28;;;14.10;99.90;;;;;;5155581;27;20047;-25
2023/09/10 04:12:37;;;;;;;69.20;57.35;;;14.00;99.90;;;;;;5156415;27;20062;-25
2023/09/10 04:15:04;;;;;;;71.63;57.20;;;14.10;99.90;;;;;;5156631;27;20085;-24
2023/09/10 04:17:30;;;;;;;76.72;58.50;;;14.10;99.90;;;;;;5157177;27;20049;-24
2023/09/10 04:19:58;;;;;;;56.22;49.13;;;14.00;99.90;;;;;;5156617;27;20038;-25
2023/09/10 04:22:24;;;;;;;64.95;53.65;;;14.10;99.90;;;;;;5156345;27;20053;-25
2023/09/10 04:24:50;;;;;;;71.97;56.03;;;14.10;99.90;;;;;;5156389;27;20065;-25
2023/09/10 04:27:16;;;;;;;66.40;54.72;;;14.10;99.90;;;;;;5155874;27;20047;-25
2023/09/10 04:29:42;;;;;;;56.30;50.17;;;14.10;99.90;;;;;;5155250;27;20050;-25
2023/09/10 04:32:08;;;;;;;45.90;41.28;;;14.10;99.90;;;;;;5156596;27;20038;-26
2023/09/10 04:34:34;;;;;;;51.00;42.83;;;14.00;99.90;;;;;;5156578;27;20058;-25
2023/09/10 04:36:59;;;;;;;49.95;44.70;;;13.90;99.90;;;;;;5138020;27;20043;-25
2023/09/10 04:39:26;;;;;;;66.85;53.10;;;13.90;99.90;;;;;;5156212;27;20074;-25
2023/09/10 04:41:51;;;;;;;82.43;57.22;;;13.90;99.90;;;;;;5155509;27;20057;-25
2023/09/10 04:44:17;;;;;;;85.25;62.88;;;13.90;99.90;;;;;;5154909;27;20046;-24
2023/09/10 04:46:43;;;;;;;53.95;48.00;;;14.00;99.90;;;;;;5155984;27;20045;-26
2023/09/10 04:49:08;;;;;;;56.42;50.28;;;14.00;99.90;;;;;;5155631;27;20039;-25
2023/09/10 04:51:34;;;;;;;63.47;55.53;;;14.00;99.90;;;;;;5155810;27;20093;-26
2023/09/10 04:54:00;;;;;;;87.25;63.65;;;14.00;99.90;;;;;;5154731;27;20053;-25
2023/09/10 04:56:26;;;;;;;53.78;47.53;;;14.00;99.90;;;;;;5156674;27;20039;-24
2023/09/10 04:58:51;;;;;;;56.25;50.25;;;14.00;99.90;;;;;;5155801;27;20389;-25
2023/09/10 05:01:17;;;;;;;61.78;52.15;;;14.00;99.90;;;;;;5156345;27;20361;-26
2023/09/10 05:03:43;;;;;;;53.25;47.00;;;14.00;99.90;;;;;;5155782;27;20121;-25
2023/09/10 05:06:09;;;;;;;62.20;54.47;;;14.10;99.90;;;;;;5138360;27;20433;-25
2023/09/10 05:08:35;;;;;;;54.53;48.03;;;14.00;99.90;;;;;;5155281;27;20400;-25
2023/09/10 05:11:02;;;;;;;62.03;54.00;;;14.10;99.90;;;;;;5155698;27;20061;-25
2023/09/10 05:13:28;;;;;;;58.58;50.65;;;14.10;99.90;;;;;;5155305;27;20043;-25
2023/09/10 05:15:54;;;;;;;49.70;44.03;;;14.10;99.90;;;;;;5154589;27;20061;-25
2023/09/10 05:18:21;;;;;;;65.97;52.60;;;14.10;99.90;;;;;;5155645;27;20046;-25
2023/09/10 05:20:50;;;;;;;60.33;50.65;;;14.20;99.90;;;;;;5155552;27;20043;-25
2023/09/10 05:23:16;;;;;;;59.10;50.05;;;14.20;99.90;;;;;;5154548;27;20050;-25
2023/09/10 05:25:42;;;;;;;111.38;64.95;;;14.30;99.90;;;;;;5155749;27;20047;-25
2023/09/10 05:28:07;;;;;;;60.00;49.60;;;14.30;99.90;;;;;;5155364;27;20495;-26
2023/09/10 05:30:37;;;;;;;42.30;37.90;;;14.30;99.90;;;;;;5155376;27;20149;-25
2023/09/10 05:33:03;;;;;;;35.22;31.73;;;14.30;99.90;;;;;;5155381;27;20047;-24
2023/09/10 05:35:29;;;;;;;45.70;41.20;;;14.20;99.90;;;;;;5154465;27;20042;-25
2023/09/10 05:37:55;;;;;;;47.10;42.70;;;14.20;99.90;;;;;;5154350;27;20529;-25
2023/09/10 05:40:20;;;;;;;44.60;40.20;;;14.10;99.90;;;;;;5158291;27;20389;-25
2023/09/10 05:42:46;;;;;;;44.00;39.85;;;14.20;99.90;;;;;;5140946;27;20077;-25
2023/09/10 05:45:12;;;;;;;45.03;40.47;;;14.20;99.90;;;;;;5159638;27;20050;-25
2023/09/10 05:47:37;;;;;;;39.08;35.22;;;14.30;99.90;;;;;;5158236;27;20382;-25
2023/09/10 05:50:04;;;;;;;36.10;32.65;;;14.30;99.90;;;;;;5159390;27;20086;-24
2023/09/10 05:52:30;;;;;;;34.15;30.98;;;14.30;99.90;;;;;;5159741;27;20109;-24
2023/09/10 05:54:56;;;;;;;33.20;29.90;;;14.30;99.90;;;;;;5158423;27;20047;-26
2023/09/10 05:57:21;;;;;;;40.13;34.60;;;14.40;99.90;;;;;;5158113;27;20505;-25
2023/09/10 05:59:47;;;;;;;43.35;38.78;;;14.50;99.90;;;;;;5159336;27;20050;-26
2023/09/10 06:02:13;;;;;;;41.55;37.05;;;14.50;99.90;;;;;;5159007;27;20054;-26
2023/09/10 06:04:39;;;;;;;31.35;28.35;;;14.60;99.90;;;;;;5159252;27;20039;-25
2023/09/10 06:07:04;;;;;;;34.42;30.77;;;14.70;99.90;;;;;;5140636;27;20441;-26
2023/09/10 06:09:31;;;;;;;39.92;36.03;;;14.80;99.90;;;;;;5159582;27;20035;-26
2023/09/10 06:11:57;;;;;;;36.05;32.45;;;14.80;99.90;;;;;;5159100;27;20054;-26
2023/09/10 06:14:23;;;;;;;42.20;37.60;;;15.00;99.90;;;;;;5158126;27;20052;-25
2023/09/10 06:16:49;;;;;;;44.13;39.38;;;15.10;99.90;;;;;;5158909;27;20122;-25
2023/09/10 06:19:15;;;;;;;82.05;57.17;;;15.30;99.90;;;;;;5158945;27;20038;-25
2023/09/10 06:21:41;;;;;;;75.38;58.30;;;15.60;99.90;;;;;;5158972;27;20082;-25
2023/09/10 06:24:07;;;;;;;112.53;73.93;;;15.80;99.90;;;;;;5158511;27;20380;-25
2023/09/10 06:26:33;;;;;;;123.03;82.78;;;16.00;99.90;;;;;;5159396;27;20049;-25
2023/09/10 06:28:59;;;;;;;85.63;60.58;;;16.20;99.90;;;;;;5158719;27;20035;-26
2023/09/10 06:31:25;;;;;;;98.10;69.25;;;16.30;99.90;;;;;;5157778;27;20057;-26
2023/09/10 06:33:51;;;;;;;97.10;71.30;;;16.50;99.90;;;;;;5157633;27;20125;-25
2023/09/10 06:36:17;;;;;;;99.20;70.88;;;16.70;99.90;;;;;;5157514;27;20046;-26
2023/09/10 06:38:47;;;;;;;93.30;64.47;;;16.90;99.90;;;;;;5158584;27;20050;-25
2023/09/10 06:41:16;;;;;;;78.07;62.90;;;17.00;99.90;;;;;;5158606;27;20167;-26
2023/09/10 06:43:43;;;;;;;79.57;60.40;;;17.20;99.90;;;;;;5158485;27;20042;-25
2023/09/10 06:46:10;;;;;;;69.35;52.80;;;17.30;99.90;;;;;;5157602;27;20042;-26
2023/09/10 06:48:36;;;;;;;74.47;55.55;;;17.50;99.90;;;;;;5140016;27;20051;-25
2023/09/10 06:51:02;;;;;;;62.75;50.83;;;17.60;99.90;;;;;;5157660;27;20131;-25
2023/09/10 06:53:28;;;;;;;62.97;52.95;;;17.80;99.90;;;;;;5158808;27;20085;-26
2023/09/10 06:55:54;;;;;;;63.05;50.90;;;17.90;99.90;;;;;;5158321;27;20034;-24
2023/09/10 06:58:21;;;;;;;61.00;51.08;;;18.00;99.90;;;;;;5158217;27;20046;-26
2023/09/10 07:00:47;;;;;;;64.25;51.53;;;18.10;99.90;;;;;;5158834;27;20137;-26
2023/09/10 07:03:13;;;;;;;56.75;47.92;;;18.20;99.90;;;;;;5157578;27;20514;-25
2023/09/10 07:05:40;;;;;;;56.22;49.30;;;18.40;99.90;;;;;;5156919;27;20133;-26
2023/09/10 07:08:07;;;;;;;57.33;48.72;;;18.50;99.90;;;;;;5158038;27;20391;-26
2023/09/10 07:10:33;;;;;;;62.45;50.47;;;18.60;99.90;;;;;;5158591;27;20115;-26
2023/09/10 07:13:01;;;;;;;58.85;48.08;;;18.70;99.90;;;;;;5156722;27;20468;-25
2023/09/10 07:15:27;;;;;;;59.90;49.55;;;18.80;99.90;;;;;;5158170;27;20082;-26
2023/09/10 07:17:52;;;;;;;52.80;45.53;;;18.90;99.90;;;;;;5157803;27;20078;-26
2023/09/10 07:20:18;;;;;;;53.60;45.28;;;19.00;99.90;;;;;;5139513;27;20054;-26
2023/09/10 07:22:44;;;;;;;52.08;46.38;;;19.00;99.90;;;;;;5156707;27;20046;-26
2023/09/10 07:25:10;;;;;;;56.03;46.35;;;19.10;99.90;;;;;;5157656;27;20054;-26
2023/09/10 07:27:35;;;;;;;55.47;48.15;;;19.30;99.90;;;;;;5157542;27;20088;-26
2023/09/10 07:30:02;;;;;;;57.13;47.60;;;19.30;99.90;;;;;;5157615;27;20054;-26
2023/09/10 07:32:28;;;;;;;52.35;45.03;;;19.50;99.90;;;;;;5157833;27;20613;-26
2023/09/10 07:34:53;;;;;;;51.72;46.20;;;19.50;99.90;;;;;;5156360;27;20082;-26
2023/09/10 07:37:19;;;;;;;47.92;42.20;;;19.60;99.90;;;;;;5158020;27;20127;-26
2023/09/10 07:39:45;;;;;;;47.47;42.38;;;19.80;99.90;;;;;;5157372;27;20078;-26
2023/09/10 07:42:10;;;;;;;46.88;41.92;;;19.90;99.90;;;;;;5157333;27;20074;-26
2023/09/10 07:44:36;;;;;;;47.75;42.50;;;20.00;99.90;;;;;;5156074;27;20041;-26
2023/09/10 07:47:02;;;;;;;49.85;44.33;;;20.20;99.90;;;;;;5157432;27;20361;-25
2023/09/10 07:49:28;;;;;;;47.58;41.88;;;20.30;99.90;;;;;;5157991;27;20038;-26
2023/09/10 07:51:54;;;;;;;49.05;42.97;;;20.40;99.90;;;;;;5121584;27;20524;-26
2023/09/10 07:54:19;;;;;;;48.03;42.78;;;20.50;99.90;;;;;;5157069;27;20042;-26
2023/09/10 07:56:45;;;;;;;47.63;42.53;;;20.60;99.90;;;;;;5157019;27;20047;-26
2023/09/10 07:59:12;;;;;;;44.47;39.78;;;20.80;99.90;;;;;;5157589;27;20391;-26
2023/09/10 08:01:40;;;;;;;45.35;40.17;;;20.90;99.90;;;;;;5156777;27;20042;-26
2023/09/10 08:04:06;;;;;;;44.13;39.55;;;21.10;99.90;;;;;;5157743;27;20160;-26
2023/09/10 08:06:32;;;;;;;45.25;40.53;;;21.10;99.90;;;;;;5155929;27;20481;-26
2023/09/10 08:08:58;;;;;;;44.00;39.30;;;21.30;99.90;;;;;;5156766;27;20460;-26
2023/09/10 08:11:23;;;;;;;41.78;37.47;;;21.40;99.90;;;;;;5156716;27;20046;-26
2023/09/10 08:13:50;;;;;;;40.42;36.33;;;21.50;99.90;;;;;;5157254;27;20058;-26
2023/09/10 08:16:17;;;;;;;39.53;35.33;;;21.60;99.90;;;;;;5155486;27;20176;-26
2023/09/10 08:18:44;;;;;;;40.17;35.03;;;21.70;99.90;;;;;;5156682;27;20078;-26
2023/09/10 08:21:11;;;;;;;38.35;34.22;;;21.80;99.90;;;;;;5138344;27;20532;-27
2023/09/10 08:23:37;;;;;;;36.67;32.92;;;21.90;99.90;;;;;;5156536;27;20049;-26
2023/09/10 08:26:03;;;;;;;39.00;34.67;;;22.00;99.90;;;;;;5156546;27;20042;-26
2023/09/10 08:28:29;;;;;;;36.38;31.67;;;22.10;99.90;;;;;;5155203;27;20087;-26
2023/09/10 08:30:55;;;;;;;37.97;33.97;;;22.30;99.90;;;;;;5156361;27;20047;-26
2023/09/10 08:33:21;;;;;;;32.75;29.38;;;22.40;99.90;;;;;;5156341;27;20434;-26
2023/09/10 08:35:49;;;;;;;33.10;28.70;;;22.60;99.90;;;;;;5155628;27;20049;-26
2023/09/10 08:38:15;;;;;;;30.00;26.63;;;22.70;99.90;;;;;;5155055;27;20034;-26
2023/09/10 08:41:08;;;;;;;28.30;25.50;;;22.90;99.90;;;;;;5156194;27;20042;-27
2023/09/10 08:43:37;;;;;;;;;;;23.00;99.90;;;;;;5156637;27;20047;-26
2023/09/10 08:46:08;;;;;;;27.52;24.63;;;23.00;1.00;;;;;;5156630;27;19975;-26
2023/09/10 08:48:35;;;;;;;28.80;25.08;;;23.10;99.90;;;;;;5156311;27;20043;-26
2023/09/10 08:51:01;;;;;;;26.48;23.67;;;23.10;99.90;;;;;;5156053;27;20052;-26
2023/09/10 08:53:29;;;;;;;28.02;23.08;;;23.30;99.90;;;;;;5154903;27;20425;-26
2023/09/10 08:55:56;;;;;;;24.55;22.08;;;23.40;99.90;;;;;;5154724;27;20457;-26
2023/09/10 08:58:24;;;;;;;24.05;21.38;;;23.50;99.90;;;;;;5155794;27;20418;-26
2023/09/10 09:00:51;;;;;;;25.30;22.67;;;23.70;78.00;;;;;;5155826;27;20125;-26
2023/09/10 09:03:17;;;;;;;24.40;21.83;;;23.80;99.90;;;;;;5156623;27;20046;-26
2023/09/10 09:05:45;;;;;;;20.90;18.83;;;24.10;99.90;;;;;;5154661;27;20043;-27
2023/09/10 09:08:17;;;;;;;21.20;17.80;;;24.50;99.90;;;;;;5155338;27;20488;-25
2023/09/10 09:10:44;;;;;;;22.27;18.48;;;25.40;99.90;;;;;;5137563;27;20449;-27
2023/09/10 09:13:12;;;;;;;17.75;15.85;;;26.20;1.00;;;;;;5155427;27;20536;-26
2023/09/10 09:15:39;;;;;;;19.77;15.95;;;26.80;1.00;;;;;;5155626;27;20042;-26
2023/09/10 09:18:09;;;;;;;19.55;14.27;;;27.40;99.90;;;;;;5154346;27;20042;-26
2023/09/10 09:20:36;;;;;;;15.13;13.45;;;27.80;99.90;;;;;;5155909;27;20043;-26
2023/09/10 09:23:27;;;;;;;14.50;13.02;;;28.90;99.90;;;;;;5155527;27;20046;-27
2023/09/10 09:25:54;;;;;;;15.07;13.57;;;29.00;1.00;;;;;;5155463;27;20532;-27
2023/09/10 09:28:21;;;;;;;20.70;13.32;;;29.10;99.90;;;;;;5155481;27;20038;-28
2023/09/10 09:30:47;;;;;;;14.75;10.45;;;29.10;99.90;;;;;;5154271;27;20069;-27
2023/09/10 09:33:12;;;;;;;12.98;11.63;;;29.40;7.40;;;;;;5154411;27;20053;-27
2023/09/10 09:35:38;;;;;;;12.25;10.95;;;29.60;1.00;;;;;;5155637;27;20388;-27
2023/09/10 09:38:05;;;;;;;10.98;9.82;;;29.90;1.00;;;;;;5155374;27;20499;-27
2023/09/10 09:40:33;;;;;;;12.57;10.23;;;30.10;99.90;;;;;;5155362;27;20059;-27
2023/09/10 09:43:01;;;;;;;13.30;11.40;;;30.30;99.90;;;;;;5155634;27;20050;-27
2023/09/10 09:45:26;;;;;;;12.77;9.98;;;30.40;99.90;;;;;;5155307;27;20473;-28
2023/09/10 09:47:53;;;;;;;17.38;10.45;;;30.70;99.90;;;;;;5153951;27;20042;-27
2023/09/10 09:50:25;;;;;;;11.02;9.48;;;31.00;99.90;;;;;;5156126;27;20432;-27
2023/09/10 09:52:51;;;;;;;;;;;31.10;99.90;;;;;;5155722;27;20054;-27
2023/09/10 09:55:17;;;;;;;12.25;11.00;;;30.70;99.90;;;;;;5155590;27;19925;-27
2023/09/10 09:57:46;;;;;;;13.75;10.45;;;30.80;99.90;;;;;;5154975;27;20122;-28
2023/09/10 10:00:13;;;;;;;16.02;10.75;;;30.90;99.90;;;;;;5155145;27;20111;-27
2023/09/10 10:02:39;;;;;;;12.10;10.65;;;30.90;99.90;;;;;;5155343;27;20544;-27
2023/09/10 10:05:05;;;;;;;10.90;9.73;;;31.20;99.90;;;;;;5155076;27;20042;-27
2023/09/10 10:07:34;;;;;;;13.70;10.45;;;30.90;99.90;;;;;;5155260;27;20522;-27
2023/09/10 10:10:00;;;;;;;11.55;10.18;;;30.60;99.90;;;;;;5155099;27;20075;-27
2023/09/10 10:12:26;;;;;;;16.50;10.57;;;30.60;99.90;;;;;;5155106;27;20050;-27
2023/09/10 10:14:54;;;;;;;13.23;10.07;;;30.90;99.90;;;;;;5155551;27;20042;-28
2023/09/10 10:17:22;;;;;;;12.43;9.95;;;31.30;95.90;;;;;;5155003;27;20046;-28
2023/09/10 10:19:50;;;;;;;13.00;9.20;;;31.70;99.90;;;;;;5154926;27;20057;-28
2023/09/10 10:22:16;;;;;;;14.27;9.38;;;32.10;99.90;;;;;;5154951;27;20047;-27
2023/09/10 10:24:42;;;;;;;13.77;9.18;;;31.90;75.10;;;;;;5153384;27;20082;-27
2023/09/10 10:27:08;;;;;;;12.18;8.98;;;32.10;52.80;;;;;;5159427;27;20039;-27
2023/09/10 10:29:35;;;;;;;9.23;8.18;;;32.10;42.40;;;;;;5158760;27;20030;-27
2023/09/10 10:32:16;;;;;;;10.48;8.55;;;32.40;1.00;;;;;;5158773;27;20137;-27
2023/09/10 10:34:53;;;;;;;10.10;8.80;;;32.60;1.00;;;;;;5159086;27;20047;-27
2023/09/10 10:37:27;;;;;;;10.65;7.47;;;32.50;1.00;;;;;;5158716;27;20279;-28
2023/09/10 10:40:12;;;;;;;12.88;8.15;;;32.70;1.00;;;;;;5158639;27;20038;-27
2023/09/10 10:42:50;;;;;;;11.32;7.40;;;33.00;1.00;;;;;;5157092;27;20049;-27
2023/09/10 10:45:18;;;;;;;12.38;6.53;;;33.20;1.00;;;;;;5158628;27;20103;-28
2023/09/10 10:47:45;;;;;;;12.75;8.10;;;33.50;1.00;;;;;;5158046;27;20404;-29
2023/09/10 10:50:12;;;;;;;10.57;6.90;;;33.70;1.00;;;;;;5140177;27;20125;-27
2023/09/10 10:52:58;;;;;;;11.55;6.28;;;34.00;1.00;;;;;;5158270;27;20061;-28
2023/09/10 10:55:24;;;;;;;9.65;6.10;;;33.90;1.00;;;;;;5158045;27;20488;-27
2023/09/10 10:57:51;;;;;;;9.15;5.50;;;34.00;1.00;;;;;;5157372;27;20047;-28
2023/09/10 11:00:18;;;;;;;10.50;6.30;;;34.10;1.00;;;;;;5158246;27;20051;-28
2023/09/10 11:02:45;;;;;;;12.38;5.80;;;34.10;1.00;;;;;;5139719;27;20068;-28
2023/09/10 11:05:11;;;;;;;10.23;6.82;;;34.20;1.00;;;;;;5156927;27;20061;-28
2023/09/10 11:07:36;;;;;;;11.45;6.07;;;34.20;1.00;;;;;;5158006;27;20133;-28
2023/09/10 11:10:27;;;;;;;26.38;6.07;;;34.30;1.00;;;;;;5158073;27;20086;-28
2023/09/10 11:13:06;;;;;;;14.73;5.20;;;34.30;99.90;;;;;;5157929;27;20053;-27
2023/09/10 11:15:32;;;;;;;10.07;5.18;;;34.10;99.90;;;;;;5157924;27;20500;-27
2023/09/10 11:18:35;;;;;;;12.18;4.93;;;33.50;99.90;;;;;;5156630;27;20038;-28
2023/09/10 11:21:12;;;;;;;8.23;5.10;;;33.80;99.90;;;;;;5157781;27;20078;-28
2023/09/10 11:23:40;;;;;;;7.80;4.93;;;34.10;99.90;;;;;;5158691;27;20494;-28
2023/09/10 11:26:14;;;;;;;7.57;5.82;;;34.20;99.90;;;;;;5156195;27;20055;-28
2023/09/10 11:28:52;;;;;;;9.10;5.70;;;33.30;99.90;;;;;;5157526;27;20046;-29
2023/09/10 11:31:33;;;;;;;8.82;5.75;;;33.00;99.90;;;;;;5158537;27;20096;-28
2023/09/10 11:37:03;;;;;;;11.88;5.50;;;32.50;99.90;;;;;;5156284;27;20133;-27
2023/09/10 11:39:31;;;;;;;9.75;5.35;;;33.10;1.00;;;;;;5158110;27;20086;-27
2023/09/10 11:41:58;;;;;;;12.35;6.00;;;33.60;1.00;;;;;;5157432;27;20051;-28
2023/09/10 11:44:24;;;;;;;16.55;5.88;;;34.00;1.00;;;;;;5157392;27;20042;-28
2023/09/10 11:46:54;;;;;;;8.40;6.13;;;34.30;1.00;;;;;;5157813;27;20392;-28
2023/09/10 11:49:21;;;;;;;12.93;5.85;;;34.70;1.00;;;;;;5158058;27;20357;-28
2023/09/10 11:51:48;;;;;;;8.48;5.20;;;34.50;1.00;;;;;;5156013;27;20047;-27
2023/09/10 11:54:19;;;;;;;14.15;5.80;;;34.30;99.90;;;;;;5157223;27;20125;-29
2023/09/10 11:56:58;;;;;;;8.57;5.70;;;34.00;1.00;;;;;;5157231;27;20049;-28
2023/09/10 11:59:31;;;;;;;14.27;5.97;;;34.20;1.00;;;;;;5157658;27;20077;-28
2023/09/10 12:01:57;;;;;;;11.50;5.80;;;34.30;1.00;;;;;;5157701;27;20050;-28
2023/09/10 12:04:31;;;;;;;11.52;4.57;;;34.40;1.00;;;;;;5157034;27;20178;-28
2023/09/10 12:06:57;;;;;;;10.55;5.00;;;34.60;1.00;;;;;;5156011;27;20058;-27
2023/09/10 12:09:24;;;;;;;8.95;5.18;;;35.00;1.00;;;;;;5121292;27;20038;-28
2023/09/10 12:11:52;;;;;;;10.18;4.95;;;35.20;1.00;;;;;;5156736;27;20054;-28
2023/09/10 12:14:18;;;;;;;7.60;5.05;;;35.10;1.00;;;;;;5156138;27;20085;-29
2023/09/10 12:16:45;;;;;;;11.27;5.05;;;35.00;1.00;;;;;;5155552;27;20445;-28
2023/09/10 12:19:11;;;;;;;12.43;5.05;;;35.00;1.00;;;;;;5156584;27;20496;-28
2023/09/10 12:21:39;;;;;;;10.02;5.03;;;35.10;1.00;;;;;;5156655;27;20049;-28
2023/09/10 12:24:05;;;;;;;11.70;4.53;;;35.30;1.00;;;;;;5157087;27;20061;-28
2023/09/10 12:26:31;;;;;;;10.68;5.85;;;35.20;1.00;;;;;;5156432;27;20050;-28
2023/09/10 12:28:57;;;;;;;18.48;4.90;;;34.30;1.00;;;;;;5156428;27;20043;-28
2023/09/10 12:31:23;;;;;;;10.73;5.38;;;34.40;1.00;;;;;;5156267;27;20414;-28
2023/09/10 12:33:50;;;;;;;6.43;4.22;;;34.30;1.00;;;;;;5156911;27;20053;-28
2023/09/10 12:36:16;;;;;;;13.88;4.72;;;34.50;99.90;;;;;;5156366;27;20047;-29